Time;durP1;ratioP1;P1;durP2;ratioP2;P2;SDS_P1;SDS_P2;PMS_P1;PMS_P2;Temp;Humidity;BMP_temperature;BMP_pressure;BME280_temperature;BME280_humidity;BME280_pressure;Samples;Min_cycle;Max_cycle;Signal;HPM_P1;HPM_P2
2023/02/27 00:01:52;;;;;;;3.70;2.53;;;;;;;0.57;57.45;98046.47;6281408;28;20418;-70
2023/02/27 00:04:56;;;;;;;4.07;2.60;;;;;;;0.58;57.42;98037.63;6279939;28;20811;-69
2023/02/27 00:07:58;;;;;;;3.30;2.27;;;;;;;0.58;57.77;98035.81;6277722;28;20232;-69
2023/02/27 00:11:00;;;;;;;3.73;2.37;;;;;;;0.38;57.63;98011.78;6275426;28;20605;-69
2023/02/27 00:14:02;;;;;;;3.37;2.40;;;;;;;0.42;57.38;98009.66;6283682;28;20809;-69
2023/02/27 00:17:04;;;;;;;4.37;2.50;;;;;;;0.51;57.55;98037.47;6284128;28;20223;-69
2023/02/27 00:20:12;;;;;;;3.30;2.47;;;;;;;0.27;58.19;98000.88;6279726;28;20226;-69
2023/02/27 00:23:14;;;;;;;2.77;2.47;;;;;;;-0.79;57.36;97844.84;6283305;28;20240;-69
2023/02/27 00:26:16;;;;;;;3.77;2.50;;;;;;;0.38;57.92;98056.34;6262100;28;20716;-69
2023/02/27 00:29:18;;;;;;;3.13;2.03;;;;;;;0.40;58.19;98054.41;6279963;28;20325;-70
2023/02/27 00:32:25;;;;;;;3.27;2.30;;;;;;;0.37;58.90;98059.13;6261048;28;20231;-70
2023/02/27 00:35:27;;;;;;;3.30;2.33;;;;;;;0.40;58.65;98064.88;6263050;28;20230;-69
2023/02/27 00:38:29;;;;;;;2.63;2.10;;;;;;;0.43;59.46;98059.28;6282038;28;20317;-70
2023/02/27 00:41:31;;;;;;;4.67;2.20;;;;;;;0.37;61.33;98073.06;6287778;28;20604;-71
2023/02/27 00:44:35;;;;;;;3.73;2.40;;;;;;;0.41;60.41;98084.84;6250605;28;20669;-70
2023/02/27 00:47:37;;;;;;;3.23;2.50;;;;;;;0.46;60.72;98079.09;6264871;28;20235;-69
2023/02/27 00:50:39;;;;;;;2.30;2.10;;;;;;;0.41;60.44;98077.00;6263444;28;20231;-69
2023/02/27 00:53:41;;;;;;;5.53;2.80;;;;;;;0.40;60.17;98080.59;6280276;28;20227;-69
2023/02/27 00:56:43;;;;;;;3.43;2.40;;;;;;;0.39;59.82;98071.06;6263283;28;20704;-70
2023/02/27 00:59:45;;;;;;;3.80;2.60;;;;;;;0.30;60.60;98068.66;6280733;28;20226;-70
2023/02/27 01:02:47;;;;;;;5.40;2.97;;;;;;;0.47;60.73;98086.78;6259868;28;20242;-69
2023/02/27 01:05:50;;;;;;;3.60;2.40;;;;;;;0.43;60.11;98088.09;6275733;28;20238;-70
2023/02/27 01:08:52;;;;;;;4.87;3.07;;;;;;;0.41;60.62;98081.41;6280221;28;20241;-70
2023/02/27 01:11:56;;;;;;;4.97;2.70;;;;;;;0.24;59.92;98054.41;6276644;28;20222;-70
2023/02/27 01:14:58;;;;;;;3.80;2.60;;;;;;;0.46;60.68;98076.50;6283986;28;20234;-69
2023/02/27 01:18:00;;;;;;;4.10;2.50;;;;;;;0.29;60.59;98054.72;6263761;28;20238;-69
2023/02/27 01:21:03;;;;;;;3.73;2.50;;;;;;;0.61;60.73;98081.84;6278721;28;20292;-70
2023/02/27 01:24:05;;;;;;;4.27;2.60;;;;;;;0.28;60.58;98026.91;6282219;28;21006;-70
2023/02/27 01:27:07;;;;;;;3.83;2.70;;;;;;;0.69;60.22;98084.44;6247494;28;20239;-70
2023/02/27 01:30:13;;;;;;;6.47;2.90;;;;;;;0.64;60.08;98086.75;6253056;28;20293;-69
2023/02/27 01:33:15;;;;;;;4.07;2.20;;;;;;;0.65;60.33;98076.09;6251101;28;20733;-69
2023/02/27 01:36:17;;;;;;;4.97;2.93;;;;;;;0.72;60.26;98082.28;6256237;28;20707;-69
2023/02/27 01:39:19;;;;;;;3.03;2.47;;;;;;;0.78;60.09;98078.16;6264577;28;20232;-70
2023/02/27 01:42:24;;;;;;;2.83;2.43;;;;;;;0.79;59.84;98077.22;6254216;28;20229;-69
2023/02/27 01:45:38;;;;;;;3.37;2.20;;;;;;;0.65;60.35;98075.28;6260765;28;20229;-70
2023/02/27 01:48:40;;;;;;;4.17;2.40;;;;;;;0.64;59.54;98073.63;6252669;28;20251;-69
2023/02/27 01:51:52;;;;;;;2.87;2.03;;;;;;;0.60;60.05;98074.97;6254313;28;20246;-69
2023/02/27 01:54:55;;;;;;;4.90;2.60;;;;;;;0.56;59.62;98077.13;6250960;28;20227;-71
2023/02/27 01:57:58;;;;;;;4.07;2.70;;;;;;;0.63;59.93;98093.78;6255111;28;20232;-71
2023/02/27 02:01:00;;;;;;;4.73;2.30;;;;;;;0.66;60.09;98075.13;6261851;28;20694;-71
2023/02/27 02:04:11;;;;;;;2.60;1.87;;;;;;;0.37;59.79;98048.66;6253834;28;20550;-71
2023/02/27 02:07:17;;;;;;;3.53;2.10;;;;;;;0.56;59.63;98077.13;6243167;28;20245;-71
2023/02/27 02:10:21;;;;;;;3.03;2.20;;;;;;;0.61;60.19;98087.09;6251243;28;20264;-72
2023/02/27 02:13:23;;;;;;;4.03;2.30;;;;;;;0.61;59.73;98085.28;6260284;28;20535;-71
2023/02/27 02:16:56;;;;;;;4.00;2.17;;;;;;;0.59;59.35;98078.56;6256201;28;20257;-71
2023/02/27 02:20:16;;;;;;;3.63;1.97;;;;;;;0.65;58.92;98073.47;6228367;28;20720;-72
2023/02/27 02:23:36;;;;;;;3.30;2.20;;;;;;;0.71;59.08;98083.28;6253675;28;20288;-71
2023/02/27 02:26:53;;;;;;;4.40;2.33;;;;;;;-0.36;58.35;97922.13;6249786;28;20672;-71
2023/02/27 02:30:31;;;;;;;4.47;2.43;;;;;;;0.63;58.64;98082.50;6254469;28;20227;-71
2023/02/27 02:33:59;;;;;;;4.23;2.03;;;;;;;0.55;59.45;98078.09;6261220;28;20726;-71
2023/02/27 02:37:20;;;;;;;3.87;2.00;;;;;;;0.57;58.87;98083.16;6224899;28;20218;-71
2023/02/27 02:40:42;;;;;;;4.17;2.20;;;;;;;0.59;59.36;98078.56;6244688;28;20234;-71
2023/02/27 02:44:23;;;;;;;2.73;1.80;;;;;;;0.52;58.91;98081.88;6224180;28;20779;-69
2023/02/27 02:47:50;;;;;;;3.87;2.00;;;;;;;0.44;58.80;98083.69;6246858;28;20233;-70
2023/02/27 02:51:20;;;;;;;2.87;1.87;;;;;;;0.54;59.11;98088.72;6251452;28;20232;-70
2023/02/27 02:54:53;;;;;;;3.13;2.00;;;;;;;0.50;58.31;98093.53;6251471;28;20305;-69
2023/02/27 02:58:05;;;;;;;3.00;1.97;;;;;;;0.43;58.23;98092.53;6262917;28;20254;-70
2023/02/27 03:01:16;;;;;;;5.47;2.23;;;;;;;0.46;57.65;98092.22;6252265;28;20227;-70
2023/02/27 03:04:32;;;;;;;2.93;1.97;;;;;;;0.49;57.62;98089.25;6226189;28;20675;-69
2023/02/27 03:07:41;;;;;;;3.00;2.20;;;;;;;0.50;57.56;98104.81;6231066;28;20296;-70
2023/02/27 03:10:53;;;;;;;2.73;1.83;;;;;;;0.46;57.24;98102.69;6252183;28;20741;-69
2023/02/27 03:14:07;;;;;;;4.17;2.03;;;;;;;0.39;57.76;98101.72;6251422;28;20441;-69
2023/02/27 03:17:16;;;;;;;4.13;2.20;;;;;;;0.35;57.59;98097.81;6249586;28;20215;-70
2023/02/27 03:20:23;;;;;;;4.03;2.30;;;;;;;0.00;57.12;98078.84;6253814;28;20246;-70
2023/02/27 03:23:39;;;;;;;3.33;1.83;;;;;;;0.35;57.35;98105.66;6253145;28;20231;-69
2023/02/27 03:26:43;;;;;;;4.47;2.20;;;;;;;0.11;57.18;98078.50;6225172;28;20247;-69
2023/02/27 03:30:06;;;;;;;3.17;1.70;;;;;;;0.34;57.04;98111.88;6248207;28;20250;-69
2023/02/27 03:33:29;;;;;;;5.27;2.27;;;;;;;-0.03;57.04;98063.47;6249589;28;20705;-70
2023/02/27 03:36:53;;;;;;;3.07;2.10;;;;;;;0.30;56.87;98129.75;6235368;28;20822;-70
2023/02/27 03:40:09;;;;;;;3.23;1.90;;;;;;;0.32;57.20;98122.53;6223706;28;20235;-69
2023/02/27 03:43:34;;;;;;;6.50;2.03;;;;;;;0.33;56.75;98131.22;6251680;28;20227;-69
2023/02/27 03:46:37;;;;;;;1.90;1.67;;;;;;;0.37;56.72;98137.75;6250857;28;20239;-69
2023/02/27 03:49:39;;;;;;;5.87;2.50;;;;;;;0.33;56.77;98134.63;6250959;28;20264;-69
2023/02/27 03:52:42;;;;;;;3.30;1.90;;;;;;;0.35;56.48;98139.75;6253039;28;20236;-70
2023/02/27 03:55:47;;;;;;;2.97;2.17;;;;;;;0.30;56.89;98136.78;6252473;28;20728;-71
2023/02/27 03:58:50;;;;;;;3.97;2.00;;;;;;;0.31;56.31;98141.88;6252421;28;20307;-69
2023/02/27 04:01:55;;;;;;;5.67;2.40;;;;;;;0.34;56.26;98138.88;6258148;28;20254;-71
2023/02/27 04:04:57;;;;;;;5.93;2.77;;;;;;;0.30;56.49;98127.13;6251514;28;20241;-69
2023/02/27 04:08:49;;;;;;;5.00;2.30;;;;;;;0.24;56.01;98133.00;6251907;28;20238;-70
2023/02/27 04:12:16;;;;;;;4.63;1.90;;;;;;;0.20;55.10;98140.41;6251221;28;20223;-71
2023/02/27 04:15:36;;;;;;;3.17;1.67;;;;;;;0.27;55.50;98147.59;6252352;28;20231;-70
2023/02/27 04:19:07;;;;;;;5.90;2.00;;;;;;;0.25;56.19;98150.38;6248526;28;20227;-70
2023/02/27 04:22:35;;;;;;;4.23;1.90;;;;;;;0.27;55.72;98147.59;6251182;28;20665;-70
2023/02/27 04:25:50;;;;;;;3.93;2.00;;;;;;;0.17;55.82;98151.19;6260154;28;20764;-70
2023/02/27 04:29:16;;;;;;;3.20;1.93;;;;;;;0.15;55.26;98160.22;6277119;28;20238;-70
2023/02/27 04:32:28;;;;;;;4.30;2.10;;;;;;;0.09;55.35;98155.59;6275907;28;20662;-69
2023/02/27 04:36:06;;;;;;;5.87;2.10;;;;;;;0.09;55.41;98151.19;6271477;28;20723;-69
2023/02/27 04:39:24;;;;;;;3.33;1.77;;;;;;;-0.17;55.96;98140.06;6255055;28;20229;-70
2023/02/27 04:42:30;;;;;;;4.80;2.13;;;;;;;0.06;55.58;98153.34;6274699;28;20321;-70
2023/02/27 04:45:34;;;;;;;3.77;2.10;;;;;;;-0.22;55.86;98121.41;6282715;28;20782;-70
2023/02/27 04:48:44;;;;;;;3.73;1.70;;;;;;;0.12;55.67;98161.34;6279407;28;20235;-70
2023/02/27 04:52:05;;;;;;;3.47;2.03;;;;;;;-0.23;55.45;98110.09;6284009;28;20230;-70
2023/02/27 04:55:16;;;;;;;4.57;1.97;;;;;;;-0.07;54.63;98143.34;6270200;28;20227;-71
2023/02/27 04:58:49;;;;;;;5.93;2.07;;;;;;;0.04;54.94;98157.91;6264861;28;20595;-70
2023/02/27 05:02:03;;;;;;;4.50;2.30;;;;;;;-0.22;54.84;98124.00;6274897;28;20225;-70
2023/02/27 05:05:11;;;;;;;4.40;1.70;;;;;;;0.10;54.37;98179.03;6275148;28;20227;-70
2023/02/27 05:08:42;;;;;;;3.67;1.73;;;;;;;-0.02;54.24;98181.16;6259372;28;20218;-70
2023/02/27 05:12:11;;;;;;;3.43;1.80;;;;;;;0.05;54.30;98186.56;6279467;28;20694;-70
2023/02/27 05:15:20;;;;;;;3.73;2.00;;;;;;;0.04;53.56;98187.53;6268304;28;20671;-69
2023/02/27 05:18:23;;;;;;;4.03;1.80;;;;;;;0.04;53.90;98190.16;6263988;28;20684;-70
2023/02/27 05:21:31;;;;;;;3.07;1.57;;;;;;;0.07;53.59;98187.22;6279665;28;20218;-70
2023/02/27 05:24:47;;;;;;;4.00;1.80;;;;;;;0.08;53.85;98190.66;6278043;28;20754;-70
2023/02/27 05:27:55;;;;;;;3.23;1.40;;;;;;;0.05;53.84;98194.44;6280418;28;20227;-70
2023/02/27 05:31:17;;;;;;;3.20;1.80;;;;;;;0.01;54.13;98193.09;6281721;28;20230;-71
2023/02/27 05:34:19;;;;;;;7.47;2.40;;;;;;;0.04;53.90;98189.34;6257748;28;20238;-70
2023/02/27 05:37:30;;;;;;;3.43;2.20;;;;;;;-0.35;53.87;98148.84;6280783;28;20235;-69
2023/02/27 05:40:44;;;;;;;6.43;2.53;;;;;;;0.01;54.17;98208.00;6261956;28;20238;-70
2023/02/27 05:43:50;;;;;;;6.37;2.10;;;;;;;-0.07;53.58;98195.72;6248153;28;20231;-69
2023/02/27 05:46:58;;;;;;;3.03;1.40;;;;;;;-0.30;52.96;98149.19;6269817;28;20220;-70
2023/02/27 05:50:04;;;;;;;3.97;2.00;;;;;;;0.06;53.10;98230.09;6261723;28;20227;-69
2023/02/27 05:53:10;;;;;;;4.63;1.90;;;;;;;0.06;53.01;98234.53;6257959;28;20228;-70
2023/02/27 05:56:15;;;;;;;3.43;1.67;;;;;;;0.06;53.86;98230.09;6278566;28;20718;-70
2023/02/27 05:59:37;;;;;;;2.47;1.70;;;;;;;-0.30;53.15;98185.00;6279886;28;20606;-70
2023/02/27 06:02:41;;;;;;;3.40;1.97;;;;;;;0.02;52.97;98243.69;6274268;28;20230;-69
2023/02/27 06:05:46;;;;;;;4.37;1.80;;;;;;;-0.23;53.34;98193.88;6260689;28;20304;-70
2023/02/27 06:08:48;;;;;;;2.83;1.70;;;;;;;0.05;53.50;98248.59;6281357;28;20300;-70
2023/02/27 06:11:50;;;;;;;4.10;1.80;;;;;;;0.05;53.60;98248.59;6280618;28;20338;-70
2023/02/27 06:14:52;;;;;;;3.23;1.60;;;;;;;-0.39;52.99;98191.25;6281095;28;20231;-70
2023/02/27 06:17:55;;;;;;;2.70;1.67;;;;;;;0.09;52.81;98257.75;6280608;28;20214;-70
2023/02/27 06:20:57;;;;;;;4.17;2.00;;;;;;;0.13;52.55;98254.66;6277151;28;20226;-69
2023/02/27 06:23:59;;;;;;;4.63;2.10;;;;;;;0.09;51.38;98263.00;6279801;28;20644;-69
2023/02/27 06:27:01;;;;;;;4.90;2.10;;;;;;;0.13;51.96;98262.53;6259161;28;20226;-70
2023/02/27 06:30:06;;;;;;;2.07;1.60;;;;;;;-0.03;51.32;98237.13;6277725;28;20222;-70
2023/02/27 06:33:08;;;;;;;4.20;2.03;;;;;;;-0.31;51.47;98196.47;6262851;28;20583;-70
2023/02/27 06:36:10;;;;;;;4.30;1.97;;;;;;;0.17;51.25;98273.50;6261624;28;20225;-70
2023/02/27 06:39:12;;;;;;;5.73;2.00;;;;;;;0.23;50.73;98273.66;6259599;28;20659;-70
2023/02/27 06:42:14;;;;;;;3.20;2.00;;;;;;;0.30;50.86;98273.06;6244708;28;20207;-70
2023/02/27 06:45:17;;;;;;;3.97;2.17;;;;;;;0.29;50.43;98266.97;6276955;28;20226;-70
2023/02/27 06:48:19;;;;;;;2.90;2.00;;;;;;;0.44;51.21;98269.75;6261876;28;20213;-70
2023/02/27 06:51:21;;;;;;;4.07;1.83;;;;;;;0.23;51.24;98233.56;6275833;28;20229;-70
2023/02/27 06:54:23;;;;;;;4.50;2.27;;;;;;;0.19;51.13;98219.13;6279514;28;20699;-70
2023/02/27 06:57:25;;;;;;;3.83;1.80;;;;;;;0.27;50.84;98227.00;6281960;28;20218;-70
2023/02/27 07:00:28;;;;;;;4.60;2.30;;;;;;;0.19;51.03;98238.28;6276737;28;20305;-70
2023/02/27 07:03:30;;;;;;;6.23;2.70;;;;;;;0.60;51.08;98295.19;6264702;28;20248;-70
2023/02/27 07:06:32;;;;;;;4.93;2.50;;;;;;;0.68;51.36;98300.41;6262747;28;20256;-70
2023/02/27 07:09:54;;;;;;;6.17;2.13;;;;;;;0.75;51.12;98299.63;6276409;28;20227;-70
2023/02/27 07:12:56;;;;;;;4.37;2.03;;;;;;;0.79;51.48;98310.59;6266136;28;20237;-70
2023/02/27 07:15:58;;;;;;;3.23;1.90;;;;;;;0.79;51.20;98305.34;6278884;28;20226;-71
2023/02/27 07:19:00;;;;;;;4.23;2.67;;;;;;;0.82;51.23;98310.25;6274545;28;20241;-70
2023/02/27 07:22:02;;;;;;;2.97;2.13;;;;;;;0.98;51.41;98319.91;6272625;28;20241;-70
2023/02/27 07:25:05;;;;;;;4.70;2.53;;;;;;;0.69;50.74;98267.97;6277300;28;20273;-70
2023/02/27 07:28:07;;;;;;;3.87;2.17;;;;;;;0.56;49.97;98267.66;6278842;28;20757;-69
2023/02/27 07:31:09;;;;;;;7.80;2.20;;;;;;;0.96;50.44;98321.91;6277467;28;20242;-70
2023/02/27 07:34:12;;;;;;;4.40;2.17;;;;;;;1.07;50.36;98326.78;6270684;28;20735;-70
2023/02/27 07:37:14;;;;;;;3.10;1.93;;;;;;;1.21;49.55;98320.06;6277042;28;20239;-70
2023/02/27 07:40:17;;;;;;;4.53;2.20;;;;;;;1.31;48.50;98319.88;6258983;28;20226;-69
2023/02/27 07:43:19;;;;;;;4.37;2.10;;;;;;;1.51;48.98;98313.28;6281278;28;20726;-70
2023/02/27 07:46:22;;;;;;;6.27;2.60;;;;;;;1.61;48.19;98286.81;6258641;28;20463;-69
2023/02/27 07:49:24;;;;;;;3.80;2.00;;;;;;;1.64;47.17;98279.44;6261849;28;20314;-69
2023/02/27 07:52:26;;;;;;;4.03;2.20;;;;;;;1.78;46.30;98278.72;6261776;28;20253;-69
2023/02/27 07:55:28;;;;;;;3.67;2.23;;;;;;;1.54;46.20;98263.06;6260218;28;20244;-70
2023/02/27 07:58:30;;;;;;;3.73;2.27;;;;;;;1.96;46.02;98323.13;6280154;28;20302;-70
2023/02/27 08:01:32;;;;;;;4.23;2.20;;;;;;;1.84;45.48;98315.81;6278537;28;20291;-69
2023/02/27 08:04:34;;;;;;;5.33;2.20;;;;;;;1.64;46.02;98268.13;6260804;28;20701;-69
2023/02/27 08:07:36;;;;;;;4.10;1.83;;;;;;;2.06;45.55;98325.53;6286190;28;20216;-70
2023/02/27 08:10:38;;;;;;;4.57;1.77;;;;;;;2.12;45.71;98311.72;6268859;28;20609;-70
2023/02/27 08:13:40;;;;;;;4.70;2.40;;;;;;;2.22;45.26;98329.91;6275380;28;20236;-69
2023/02/27 08:17:00;;;;;;;3.57;2.50;;;;;;;2.45;44.66;98337.81;6264016;28;20230;-69
2023/02/27 08:20:03;;;;;;;4.30;2.10;;;;;;;2.30;43.95;98285.16;6283104;28;20627;-70
2023/02/27 08:23:06;;;;;;;3.20;1.90;;;;;;;2.71;43.91;98335.69;6280689;28;20692;-70
2023/02/27 08:26:08;;;;;;;4.03;2.23;;;;;;;2.71;43.66;98340.94;6281848;28;20316;-70
2023/02/27 08:29:10;;;;;;;2.60;2.03;;;;;;;2.55;43.36;98339.22;6264831;28;20248;-70
2023/02/27 08:32:12;;;;;;;3.37;1.93;;;;;;;2.48;43.75;98332.22;6260135;28;20226;-69
2023/02/27 08:35:14;;;;;;;2.80;1.87;;;;;;;2.37;43.75;98343.97;6262280;28;20737;-70
2023/02/27 08:38:16;;;;;;;3.23;2.23;;;;;;;2.22;43.53;98348.31;6273129;28;20572;-70
2023/02/27 08:41:18;;;;;;;2.80;1.80;;;;;;;1.61;44.68;98279.75;6280803;28;20234;-70
2023/02/27 08:44:20;;;;;;;3.03;1.87;;;;;;;2.00;44.38;98342.81;6280426;28;20312;-70
2023/02/27 08:47:22;;;;;;;2.47;1.93;;;;;;;2.02;44.29;98346.09;6261379;28;20228;-71
2023/02/27 08:50:24;;;;;;;5.37;1.87;;;;;;;1.88;45.19;98346.00;6280694;28;20218;-72
2023/02/27 08:53:27;;;;;;;4.30;2.17;;;;;;;1.77;45.46;98348.00;6265210;28;20233;-70
2023/02/27 08:56:29;;;;;;;4.00;2.43;;;;;;;1.66;44.93;98340.47;6283831;28;20264;-71
2023/02/27 08:59:31;;;;;;;3.70;2.20;;;;;;;1.73;45.52;98344.06;6283274;28;20596;-73
2023/02/27 09:02:33;;;;;;;4.63;1.93;;;;;;;1.88;45.17;98344.19;6264303;28;20210;-71
2023/02/27 09:05:36;;;;;;;2.40;1.73;;;;;;;1.77;45.62;98321.75;6281682;28;20229;-70
2023/02/27 09:08:38;;;;;;;3.60;2.27;;;;;;;1.97;45.42;98355.47;6281549;28;20263;-70
2023/02/27 09:11:40;;;;;;;2.93;1.63;;;;;;;1.93;45.31;98348.94;6281265;28;20233;-70
2023/02/27 09:14:42;;;;;;;4.83;1.97;;;;;;;1.53;44.67;98296.38;6279848;28;20278;-70
2023/02/27 09:17:45;;;;;;;3.30;1.97;;;;;;;1.96;45.43;98354.66;6282075;28;20377;-70
2023/02/27 09:20:50;;;;;;;4.13;1.80;;;;;;;2.11;44.66;98361.81;6262001;28;20220;-71
2023/02/27 09:23:52;;;;;;;2.83;1.80;;;;;;;2.23;44.08;98358.66;6280768;28;20231;-70
2023/02/27 09:26:54;;;;;;;3.10;1.77;;;;;;;2.53;43.31;98351.75;6280860;28;20736;-70
2023/02/27 09:29:57;;;;;;;4.73;2.10;;;;;;;2.70;42.71;98362.97;6280631;28;20271;-71
2023/02/27 09:32:59;;;;;;;1.93;1.50;;;;;;;2.42;41.96;98359.22;6262617;28;20226;-69
2023/02/27 09:36:01;;;;;;;2.67;1.37;;;;;;;2.21;43.66;98372.94;6252986;28;21780;-70
2023/02/27 09:39:03;;;;;;;2.17;1.30;;;;;;;2.11;42.72;98361.81;6234483;28;20859;-70
2023/02/27 09:42:17;;;;;;;2.83;1.27;;;;;;;2.28;42.91;98361.59;6261972;28;20226;-70
2023/02/27 09:45:25;;;;;;;2.13;1.10;;;;;;;1.93;41.69;98278.00;6254303;28;20242;-70
2023/02/27 09:48:30;;;;;;;2.30;1.27;;;;;;;2.43;41.30;98360.84;6239465;28;20307;-70
2023/02/27 09:51:32;;;;;;;1.93;1.27;;;;;;;2.64;41.10;98365.47;6254162;28;20553;-69
2023/02/27 09:54:34;;;;;;;1.40;1.03;;;;;;;2.76;40.75;98366.75;6257286;28;20231;-69
2023/02/27 09:57:53;;;;;;;3.67;1.43;;;;;;;2.12;40.37;98235.53;6263568;28;20760;-69
2023/02/27 10:01:14;;;;;;;2.87;1.40;;;;;;;3.00;39.90;98357.81;6263763;28;20241;-70
2023/02/27 10:04:37;;;;;;;2.80;1.30;;;;;;;3.16;40.30;98355.06;6248890;28;20241;-70
2023/02/27 10:07:59;;;;;;;2.23;1.23;;;;;;;2.81;41.13;98367.84;6253368;28;20226;-69
2023/02/27 10:11:10;;;;;;;3.27;1.30;;;;;;;2.68;41.60;98372.84;6254157;28;20677;-70
2023/02/27 10:14:30;;;;;;;2.63;1.20;;;;;;;2.02;42.32;98314.56;6253044;28;20602;-70
2023/02/27 10:17:37;;;;;;;3.63;1.23;;;;;;;2.54;43.30;98377.03;6253735;28;20322;-70
2023/02/27 10:21:09;;;;;;;1.67;1.20;;;;;;;2.52;41.56;98389.56;6253891;28;20241;-69
2023/02/27 10:24:26;;;;;;;1.80;1.20;;;;;;;2.57;42.99;98386.41;6240179;28;20229;-69
2023/02/27 10:27:29;;;;;;;1.30;1.00;;;;;;;2.31;42.50;98348.06;6249234;28;20222;-69
2023/02/27 10:30:31;;;;;;;1.43;0.80;;;;;;;2.58;42.34;98382.78;6231011;28;20593;-69
2023/02/27 10:33:38;;;;;;;3.97;1.63;;;;;;;2.53;41.97;98393.81;6226394;28;20238;-69
2023/02/27 10:36:46;;;;;;;1.47;1.17;;;;;;;2.46;41.36;98395.50;6224726;28;20683;-68
2023/02/27 10:39:54;;;;;;;1.90;1.10;;;;;;;2.60;41.06;98380.78;6235247;28;20327;-70
2023/02/27 10:43:00;;;;;;;1.27;0.93;;;;;;;2.37;42.58;98383.41;6229286;28;20818;-71
2023/02/27 10:46:11;;;;;;;1.20;0.90;;;;;;;2.42;42.19;98377.63;6224090;28;20750;-71
2023/02/27 10:49:19;;;;;;;0.97;0.90;;;;;;;2.56;42.02;98375.06;6222849;28;20230;-70
2023/02/27 10:52:21;;;;;;;3.97;1.27;;;;;;;2.74;41.46;98381.84;6228460;28;20712;-72
2023/02/27 10:55:31;;;;;;;1.63;1.30;;;;;;;2.54;41.44;98381.50;6234153;28;20244;-72
2023/02/27 10:58:35;;;;;;;2.23;1.60;;;;;;;2.76;41.62;98372.00;6230077;28;20389;-71
2023/02/27 11:01:47;;;;;;;1.57;1.17;;;;;;;2.84;40.84;98367.47;6228215;28;20234;-71
2023/02/27 11:04:55;;;;;;;1.77;1.53;;;;;;;2.91;40.79;98364.16;6227840;28;20247;-71
2023/02/27 11:08:21;;;;;;;2.73;1.40;;;;;;;2.48;40.92;98298.03;6226897;28;20581;-70
2023/02/27 11:11:27;;;;;;;4.73;1.80;;;;;;;2.84;41.16;98371.91;6240510;28;20238;-71
2023/02/27 11:14:33;;;;;;;1.90;1.30;;;;;;;2.65;40.53;98339.00;6227762;28;20228;-70
2023/02/27 11:17:35;;;;;;;1.90;1.20;;;;;;;2.83;40.72;98360.59;6226741;28;20228;-70
2023/02/27 11:20:39;;;;;;;3.67;1.63;;;;;;;2.87;41.63;98353.16;6224705;28;20216;-70
2023/02/27 11:24:08;;;;;;;2.90;1.20;;;;;;;3.01;41.27;98343.69;6240847;28;20240;-71
2023/02/27 11:27:27;;;;;;;1.60;1.10;;;;;;;3.22;41.12;98341.19;6256080;28;20237;-71
2023/02/27 11:30:30;;;;;;;1.70;1.30;;;;;;;3.40;41.47;98347.91;6255537;28;20225;-70
2023/02/27 11:33:38;;;;;;;1.57;1.20;;;;;;;3.12;40.82;98279.25;6259228;28;20230;-69
2023/02/27 11:36:45;;;;;;;1.93;1.50;;;;;;;3.31;39.23;98326.13;6259746;28;20340;-70
2023/02/27 11:40:01;;;;;;;1.83;1.33;;;;;;;3.60;38.74;98341.16;6258472;28;20218;-70
2023/02/27 11:43:34;;;;;;;3.57;1.57;;;;;;;3.66;39.39;98326.44;6257662;28;20219;-70
2023/02/27 11:46:37;;;;;;;1.83;1.20;;;;;;;3.85;38.88;98339.88;6255527;28;20612;-70
2023/02/27 11:50:20;;;;;;;1.80;1.47;;;;;;;3.70;39.55;98335.63;6282193;28;20587;-69
2023/02/27 11:53:34;;;;;;;2.63;1.50;;;;;;;3.04;39.94;98266.97;6279484;28;20225;-69
2023/02/27 11:56:40;;;;;;;1.93;1.40;;;;;;;3.22;40.27;98328.03;6281806;28;20321;-70
2023/02/27 11:59:54;;;;;;;3.03;1.40;;;;;;;3.11;40.52;98328.47;6278190;28;20226;-69
2023/02/27 12:03:11;;;;;;;2.87;1.63;;;;;;;3.02;41.20;98324.25;6262450;28;20230;-69
2023/02/27 12:06:22;;;;;;;1.87;1.30;;;;;;;2.71;41.82;98314.66;6278983;28;20246;-68
2023/02/27 12:09:53;;;;;;;2.10;1.40;;;;;;;2.90;42.22;98341.44;6248123;28;20237;-68
2023/02/27 12:13:10;;;;;;;2.30;1.40;;;;;;;2.83;42.13;98342.16;6148520;28;20654;-68
2023/02/27 12:16:25;;;;;;;1.77;1.20;;;;;;;2.93;42.25;98341.09;6162725;28;20244;-69
2023/02/27 12:19:36;;;;;;;2.10;1.40;;;;;;;2.63;42.02;98300.72;6163936;28;20341;-69
2023/02/27 12:22:44;;;;;;;2.30;1.70;;;;;;;2.76;42.84;98350.94;6179142;28;20222;-69
2023/02/27 12:25:54;;;;;;;3.57;1.40;;;;;;;2.88;42.32;98335.56;6178925;28;20233;-69
2023/02/27 12:29:03;;;;;;;2.60;1.63;;;;;;;2.84;43.72;98309.59;6179584;28;20621;-69
2023/02/27 12:32:11;;;;;;;3.20;1.70;;;;;;;3.06;41.93;98325.53;6179640;28;20291;-69
2023/02/27 12:35:22;;;;;;;3.17;1.50;;;;;;;3.03;42.41;98325.91;6179642;28;20308;-69
2023/02/27 12:38:24;;;;;;;3.10;1.97;;;;;;;3.07;42.60;98324.53;6179402;28;20229;-69
2023/02/27 12:41:50;;;;;;;2.10;1.90;;;;;;;2.73;43.28;98301.31;6179655;28;20319;-69
2023/02/27 12:45:07;;;;;;;2.97;2.00;;;;;;;2.85;43.15;98336.72;6177692;28;20233;-68
2023/02/27 12:48:21;;;;;;;2.43;1.80;;;;;;;2.79;43.68;98342.69;6160560;28;20244;-69
2023/02/27 12:51:34;;;;;;;2.67;1.70;;;;;;;2.87;43.50;98345.28;6259179;28;20226;-69
2023/02/27 12:55:05;;;;;;;3.87;1.90;;;;;;;3.04;43.54;98352.03;6255631;28;20317;-69
2023/02/27 12:58:22;;;;;;;2.57;1.67;;;;;;;3.13;43.46;98351.97;6248548;28;20235;-69
2023/02/27 13:01:30;;;;;;;3.37;1.83;;;;;;;3.11;43.41;98352.16;6248976;28;20250;-69
2023/02/27 13:04:44;;;;;;;2.10;1.60;;;;;;;2.90;44.59;98355.44;6256412;28;20270;-69
2023/02/27 13:08:03;;;;;;;3.27;1.70;;;;;;;2.67;45.39;98358.06;6256073;28;20238;-69
2023/02/27 13:11:08;;;;;;;2.33;1.60;;;;;;;2.63;45.23;98353.34;6249696;28;20255;-69
2023/02/27 13:14:54;;;;;;;3.10;1.57;;;;;;;2.53;44.89;98356.19;6259081;28;20415;-69
2023/02/27 13:18:06;;;;;;;2.97;1.47;;;;;;;2.56;44.79;98354.03;6178016;28;20581;-69
2023/02/27 13:21:16;;;;;;;1.93;1.50;;;;;;;2.57;45.16;98354.84;6176372;28;20232;-69
2023/02/27 13:24:27;;;;;;;2.27;1.63;;;;;;;2.48;45.19;98337.47;6162155;28;20710;-69
2023/02/27 13:27:41;;;;;;;1.97;1.30;;;;;;;1.67;44.14;98208.16;6178346;28;20668;-70
2023/02/27 13:30:58;;;;;;;2.27;1.30;;;;;;;2.52;44.74;98328.25;6178150;28;20239;-69
2023/02/27 13:34:15;;;;;;;3.57;1.67;;;;;;;2.69;44.25;98347.38;6142574;28;20264;-69
2023/02/27 13:37:17;;;;;;;3.03;1.70;;;;;;;2.80;43.87;98347.75;6182906;28;20235;-69
2023/02/27 13:40:48;;;;;;;2.23;1.73;;;;;;;2.77;43.70;98342.88;6174495;28;20225;-69
2023/02/27 13:43:52;;;;;;;2.23;1.83;;;;;;;2.57;43.39;98315.41;6170365;28;20627;-72
2023/02/27 13:47:14;;;;;;;3.87;2.00;;;;;;;2.87;43.11;98353.16;6162176;28;20722;-70
2023/02/27 13:50:16;;;;;;;4.80;1.40;;;;;;;2.74;43.11;98353.75;6252312;28;20680;-70
2023/02/27 13:53:21;;;;;;;3.13;1.90;;;;;;;2.75;43.53;98358.00;6254040;28;20247;-70
2023/02/27 13:56:23;;;;;;;2.60;1.50;;;;;;;2.76;43.99;98358.84;6249921;28;20338;-70
2023/02/27 13:59:29;;;;;;;2.30;1.83;;;;;;;2.69;43.93;98355.25;6258132;28;20235;-69
2023/02/27 14:02:43;;;;;;;5.40;1.83;;;;;;;2.64;43.37;98355.78;6256226;28;20230;-70
2023/02/27 14:06:03;;;;;;;5.43;1.87;;;;;;;2.31;43.44;98310.44;6240237;28;20296;-70
2023/02/27 14:09:10;;;;;;;2.23;1.77;;;;;;;2.45;44.08;98341.25;6257291;28;20264;-70
2023/02/27 14:12:31;;;;;;;2.43;1.93;;;;;;;2.54;43.40;98348.13;6253668;28;20590;-71
2023/02/27 14:15:53;;;;;;;4.37;1.87;;;;;;;2.61;43.07;98353.53;6254151;28;20250;-70
2023/02/27 14:18:59;;;;;;;3.80;1.80;;;;;;;2.66;43.44;98350.34;6250648;28;20238;-69
2023/02/27 14:22:36;;;;;;;4.40;1.60;;;;;;;2.60;43.19;98351.84;6251112;28;20227;-71
2023/02/27 14:25:38;;;;;;;1.77;1.50;;;;;;;2.67;43.34;98365.16;6257540;28;20245;-70
2023/02/27 14:28:54;;;;;;;2.37;1.53;;;;;;;2.57;43.46;98355.66;6280553;28;20284;-70
2023/02/27 14:32:01;;;;;;;2.33;1.70;;;;;;;2.56;43.40;98361.94;6278721;28;20222;-71
2023/02/27 14:35:04;;;;;;;1.70;1.57;;;;;;;2.40;43.45;98340.16;6275115;28;20625;-71
2023/02/27 14:38:10;;;;;;;2.47;1.90;;;;;;;2.50;44.31;98367.03;6278744;28;20230;-69
2023/02/27 14:41:47;;;;;;;4.47;2.10;;;;;;;2.41;45.37;98374.16;6260280;28;20877;-69
2023/02/27 14:44:50;;;;;;;2.60;1.57;;;;;;;2.08;44.58;98312.25;6259203;28;20234;-69
2023/02/27 14:47:52;;;;;;;2.43;1.50;;;;;;;2.31;44.96;98366.47;6277474;28;20238;-69
2023/02/27 14:50:56;;;;;;;2.03;1.50;;;;;;;2.35;44.33;98376.66;6285637;28;20243;-68
2023/02/27 14:54:10;;;;;;;2.30;1.70;;;;;;;2.41;44.21;98373.34;6279449;28;20236;-68
2023/02/27 14:57:19;;;;;;;3.33;1.40;;;;;;;2.50;43.43;98373.13;6281653;28;20234;-69
2023/02/27 15:00:34;;;;;;;2.47;1.77;;;;;;;2.49;43.33;98354.91;6277651;28;20240;-69
2023/02/27 15:03:36;;;;;;;2.73;1.50;;;;;;;2.54;43.29;98381.50;6276635;28;20227;-68